Time;durP1;ratioP1;P1;durP2;ratioP2;P2;SDS_P1;SDS_P2;PMS_P1;PMS_P2;Temp;Humidity;BMP_temperature;BMP_pressure;BME280_temperature;BME280_humidity;BME280_pressure;Samples;Min_cycle;Max_cycle;Signal;HPM_P1;HPM_P2
2023/10/31 00:01:28;;;;;;;9.00;6.28;;;;;;;10.06;100.00;99629.78;4995385;28;20084;-48
2023/10/31 00:03:53;;;;;;;8.48;5.72;;;;;;;10.01;100.00;99638.19;4993545;28;20488;-46
2023/10/31 00:06:19;;;;;;;7.47;5.30;;;;;;;9.99;100.00;99637.47;4999977;28;21254;-47
2023/10/31 00:08:44;;;;;;;5.78;4.78;;;;;;;10.00;100.00;99636.50;4995933;28;20091;-46
2023/10/31 00:11:10;;;;;;;7.40;4.68;;;;;;;9.98;100.00;99636.66;4996531;28;20065;-47
2023/10/31 00:13:35;;;;;;;6.25;5.63;;;;;;;9.94;100.00;99640.59;4997869;28;20396;-46
2023/10/31 00:16:01;;;;;;;6.95;4.40;;;;;;;9.94;100.00;99648.53;4998116;28;20033;-47
2023/10/31 00:18:26;;;;;;;8.70;4.70;;;;;;;9.93;100.00;99657.47;4997409;28;20503;-47
2023/10/31 00:20:51;;;;;;;5.75;3.95;;;;;;;9.91;100.00;99650.63;4999983;28;20501;-47
2023/10/31 00:23:16;;;;;;;8.85;4.10;;;;;;;9.92;100.00;99654.97;5001610;28;20029;-46
2023/10/31 00:25:42;;;;;;;5.95;3.75;;;;;;;9.91;100.00;99650.63;4996853;28;20484;-47
2023/10/31 00:28:07;;;;;;;7.90;3.83;;;;;;;9.90;100.00;99651.63;4999543;28;20027;-47
2023/10/31 00:30:32;;;;;;;6.22;3.60;;;;;;;9.90;100.00;99649.78;5002230;28;20506;-47
2023/10/31 00:32:58;;;;;;;6.70;3.67;;;;;;;9.90;100.00;99646.31;5001739;28;20051;-46
2023/10/31 00:35:23;;;;;;;6.72;3.67;;;;;;;9.89;100.00;99642.84;4997915;28;20026;-46
2023/10/31 00:37:48;;;;;;;6.53;3.22;;;;;;;9.86;100.00;99653.72;4998610;28;20031;-47
2023/10/31 00:40:16;;;;;;;5.30;3.20;;;;;;;9.87;100.00;99647.41;5001966;28;20030;-47
2023/10/31 00:42:41;;;;;;;6.53;3.42;;;;;;;9.89;100.00;99656.09;5013907;28;20029;-47
2023/10/31 00:45:08;;;;;;;7.25;3.35;;;;;;;9.90;100.00;99663.06;4997913;28;20030;-47
2023/10/31 00:47:34;;;;;;;7.20;3.53;;;;;;;9.92;100.00;99665.56;5000306;28;20462;-46
2023/10/31 00:49:59;;;;;;;7.38;3.45;;;;;;;9.92;100.00;99669.06;5001006;28;20026;-49
2023/10/31 00:52:24;;;;;;;8.15;3.20;;;;;;;9.92;100.00;99678.84;5015250;28;20025;-46
2023/10/31 00:54:50;;;;;;;8.02;3.50;;;;;;;9.94;100.00;99676.88;4998206;28;20438;-46
2023/10/31 00:57:15;;;;;;;5.68;3.25;;;;;;;9.91;100.00;99680.66;4997533;28;20022;-46
2023/10/31 00:59:40;;;;;;;8.40;3.50;;;;;;;9.94;100.00;99674.22;4999727;28;20442;-45
2023/10/31 01:02:06;;;;;;;7.40;4.00;;;;;;;9.93;100.00;99683.16;4999648;28;20056;-45
2023/10/31 01:04:31;;;;;;;7.10;4.13;;;;;;;9.93;100.00;99683.16;4997278;28;20031;-46
2023/10/31 01:06:57;;;;;;;7.30;4.70;;;;;;;9.93;100.00;99691.13;5004309;28;20480;-46
2023/10/31 01:09:22;;;;;;;11.02;5.57;;;;;;;9.93;100.00;99694.59;4995585;28;20030;-46
2023/10/31 01:11:47;;;;;;;12.10;8.00;;;;;;;9.93;100.00;99688.47;4997488;28;20022;-45
2023/10/31 01:14:12;;;;;;;10.27;7.57;;;;;;;9.95;100.00;99700.59;5000230;28;20034;-46
2023/10/31 01:16:40;;;;;;;13.95;9.05;;;;;;;9.96;100.00;99704.13;4999192;28;20057;-45
2023/10/31 01:19:05;;;;;;;14.27;9.45;;;;;;;9.98;100.00;99697.66;4997638;28;20031;-45
2023/10/31 01:21:31;;;;;;;13.95;10.43;;;;;;;9.99;100.00;99702.00;5001128;28;20037;-46
2023/10/31 01:23:56;;;;;;;14.27;12.27;;;;;;;9.99;100.00;99703.81;4999569;28;20410;-46
2023/10/31 01:26:21;;;;;;;16.90;13.15;;;;;;;9.99;100.00;99703.81;4999864;28;20026;-46
2023/10/31 01:28:46;;;;;;;20.10;15.00;;;;;;;9.98;100.00;99708.28;5020454;28;20022;-45
2023/10/31 01:31:12;;;;;;;22.55;15.68;;;;;;;9.98;100.00;99705.63;4997501;28;20023;-47
2023/10/31 01:33:37;;;;;;;22.58;16.23;;;;;;;9.97;100.00;99711.06;4998999;28;20396;-46
2023/10/31 01:36:03;;;;;;;22.35;17.30;;;;;;;9.97;100.00;99703.94;5000453;28;20030;-48
2023/10/31 01:38:28;;;;;;;19.63;16.90;;;;;;;9.98;100.00;99702.16;4999586;28;20022;-46
2023/10/31 01:40:53;;;;;;;22.63;18.63;;;;;;;9.97;100.00;99703.94;5002688;28;20483;-47
2023/10/31 01:43:35;;;;;;;22.75;19.45;;;;;;;10.00;100.00;99703.66;4998418;28;20045;-47
2023/10/31 01:46:01;;;;;;;27.33;20.50;;;;;;;9.95;100.00;99705.06;4998838;28;20030;-47
2023/10/31 01:48:29;;;;;;;27.48;21.33;;;;;;;9.93;100.00;99701.75;4999001;28;20025;-46
2023/10/31 01:50:56;;;;;;;26.53;21.83;;;;;;;9.94;100.00;99706.91;4996308;28;20030;-46
2023/10/31 01:53:24;;;;;;;28.95;23.08;;;;;;;9.90;100.00;99696.72;4997634;28;20388;-46
2023/10/31 01:55:50;;;;;;;28.88;22.75;;;;;;;9.90;100.00;99689.59;4999214;28;20037;-46
2023/10/31 01:58:16;;;;;;;31.95;23.95;;;;;;;9.90;100.00;99694.06;5000295;28;20030;-46
2023/10/31 02:00:42;;;;;;;29.27;23.63;;;;;;;9.90;100.00;99704.66;4997769;28;20083;-47
2023/10/31 02:03:08;;;;;;;29.55;24.10;;;;;;;9.88;100.00;99706.63;4996032;28;20029;-46
2023/10/31 02:05:34;;;;;;;30.15;24.40;;;;;;;9.88;100.00;99712.75;4996107;28;20034;-46
2023/10/31 02:08:00;;;;;;;33.28;24.80;;;;;;;9.87;100.00;99710.25;5001893;28;21175;-46
2023/10/31 02:10:25;;;;;;;30.02;24.58;;;;;;;9.86;100.00;99711.22;4994128;28;20107;-46
2023/10/31 02:12:51;;;;;;;29.38;24.60;;;;;;;9.88;100.00;99711.94;4996519;28;20068;-46
2023/10/31 02:15:16;;;;;;;31.38;24.00;;;;;;;9.86;100.00;99709.41;4997935;28;20030;-46
2023/10/31 02:17:41;;;;;;;30.48;25.02;;;;;;;9.87;100.00;99708.41;4994611;28;20037;-47
2023/10/31 02:20:07;;;;;;;31.60;25.75;;;;;;;9.86;100.00;99705.91;4998234;28;20024;-46
2023/10/31 02:22:32;;;;;;;32.75;25.92;;;;;;;9.86;100.00;99708.56;4999848;28;20109;-46
2023/10/31 02:24:58;;;;;;;34.13;26.95;;;;;;;9.86;100.00;99709.41;4997572;28;20052;-47
2023/10/31 02:27:23;;;;;;;35.97;26.17;;;;;;;9.87;100.00;99712.91;4998425;28;20525;-47
2023/10/31 02:29:48;;;;;;;33.15;26.45;;;;;;;9.86;100.00;99701.47;4993658;28;20105;-46
2023/10/31 02:32:13;;;;;;;33.45;27.42;;;;;;;9.83;100.00;99699.09;5000586;28;20034;-46
2023/10/31 02:34:39;;;;;;;37.45;27.08;;;;;;;9.83;100.00;99709.69;4993608;28;20505;-47
2023/10/31 02:37:05;;;;;;;34.22;27.70;;;;;;;9.84;100.00;99711.34;4994396;28;20250;-46
2023/10/31 02:39:30;;;;;;;35.28;29.88;;;;;;;9.85;100.00;99717.50;4998695;28;20031;-46
2023/10/31 02:41:55;;;;;;;35.38;28.50;;;;;;;9.83;100.00;99717.66;4996567;28;20025;-49
2023/10/31 02:44:21;;;;;;;33.45;28.48;;;;;;;9.82;100.00;99721.28;5000933;28;20391;-46
2023/10/31 02:46:46;;;;;;;36.03;29.75;;;;;;;9.82;100.00;99727.44;4996535;28;20103;-46
2023/10/31 02:49:11;;;;;;;34.45;28.77;;;;;;;9.80;100.00;99723.22;4995890;28;20026;-47
2023/10/31 02:51:37;;;;;;;36.22;29.85;;;;;;;9.79;100.00;99724.19;4999446;28;20038;-46
2023/10/31 02:54:02;;;;;;;36.95;30.27;;;;;;;9.77;100.00;99729.63;4997177;28;20026;-47
2023/10/31 02:56:27;;;;;;;35.65;29.55;;;;;;;9.75;100.00;99723.66;4995354;28;20035;-45
2023/10/31 02:58:53;;;;;;;35.53;29.38;;;;;;;9.75;100.00;99738.72;5000051;28;20484;-47
2023/10/31 03:01:19;;;;;;;35.00;28.85;;;;;;;9.72;100.00;99728.41;4995924;28;20031;-46
2023/10/31 03:03:45;;;;;;;38.67;30.20;;;;;;;9.73;100.00;99730.09;4999741;28;20426;-48
2023/10/31 03:06:10;;;;;;;37.38;30.75;;;;;;;9.71;100.00;99735.53;4996003;28;20086;-47
2023/10/31 03:08:35;;;;;;;38.40;30.75;;;;;;;9.71;100.00;99739.97;4996558;28;20520;-47
2023/10/31 03:11:01;;;;;;;32.15;28.63;;;;;;;9.72;100.00;99742.47;4997390;28;20381;-46
2023/10/31 03:13:26;;;;;;;36.55;29.48;;;;;;;9.73;100.00;99743.34;4998103;28;20026;-47
2023/10/31 03:15:51;;;;;;;35.72;31.67;;;;;;;9.74;100.00;99752.94;4993756;28;20071;-46
2023/10/31 03:18:17;;;;;;;33.78;30.10;;;;;;;9.73;100.00;99757.44;4996867;28;20042;-46
2023/10/31 03:20:48;;;;;;;36.40;31.27;;;;;;;9.75;100.00;99762.59;4996205;28;20097;-46
2023/10/31 03:23:14;;;;;;;33.90;29.98;;;;;;;9.75;100.00;99767.91;4996707;28;20034;-46
2023/10/31 03:25:39;;;;;;;37.95;32.13;;;;;;;9.76;100.00;99767.75;4998912;28;20026;-46
2023/10/31 03:28:17;;;;;;;39.58;31.13;;;;;;;9.75;100.00;99770.53;4996522;28;20483;-46
2023/10/31 03:30:43;;;;;;;39.15;32.17;;;;;;;9.77;100.00;99774.72;4995288;28;20030;-46
2023/10/31 03:33:08;;;;;;;41.00;33.97;;;;;;;9.78;100.00;99783.53;4999619;28;20054;-46
2023/10/31 03:35:33;;;;;;;43.65;34.17;;;;;;;9.78;100.00;99787.00;5000705;28;20448;-46
2023/10/31 03:37:59;;;;;;;42.55;34.50;;;;;;;9.77;100.00;99772.06;4991587;28;20030;-46
2023/10/31 03:40:24;;;;;;;42.38;34.25;;;;;;;9.80;100.00;99787.72;4997455;28;20038;-46
2023/10/31 03:42:49;;;;;;;39.35;33.47;;;;;;;9.81;100.00;99781.44;4996213;28;20401;-46
2023/10/31 03:45:14;;;;;;;41.85;33.70;;;;;;;9.80;100.00;99787.72;4995009;28;20054;-47
2023/10/31 03:47:40;;;;;;;40.80;35.55;;;;;;;9.80;100.00;99790.34;4994281;28;20392;-47
2023/10/31 03:50:05;;;;;;;39.92;33.83;;;;;;;9.81;100.00;99791.22;5009811;28;20503;-46
2023/10/31 03:52:31;;;;;;;40.28;34.35;;;;;;;9.80;100.00;99800.13;5000438;28;20094;-46
2023/10/31 03:54:56;;;;;;;38.83;33.20;;;;;;;9.81;100.00;99802.66;4997999;28;20086;-47
2023/10/31 03:57:22;;;;;;;39.55;34.53;;;;;;;9.82;100.00;99812.28;4995368;28;20042;-46
2023/10/31 03:59:48;;;;;;;40.67;33.17;;;;;;;9.85;100.00;99807.69;4998335;28;20142;-46
2023/10/31 04:02:13;;;;;;;41.85;34.33;;;;;;;9.85;100.00;99815.63;4999434;28;20507;-47
2023/10/31 04:04:38;;;;;;;39.28;33.72;;;;;;;9.84;100.00;99822.75;4997670;28;20038;-47
2023/10/31 04:07:03;;;;;;;39.80;33.92;;;;;;;9.85;100.00;99818.28;4999719;28;20017;-46
2023/10/31 04:09:29;;;;;;;38.65;32.42;;;;;;;9.84;100.00;99822.75;4997183;28;20393;-47
2023/10/31 04:11:54;;;;;;;37.20;32.47;;;;;;;9.85;100.00;99813.00;4997286;28;20113;-45
2023/10/31 04:14:19;;;;;;;36.05;31.27;;;;;;;9.86;100.00;99819.94;4999588;28;20033;-45
2023/10/31 04:16:45;;;;;;;38.03;30.85;;;;;;;9.86;100.00;99817.28;4999608;28;20044;-45
2023/10/31 04:19:13;;;;;;;36.92;29.27;;;;;;;9.86;100.00;99830.56;5000872;28;20441;-46
2023/10/31 04:21:38;;;;;;;33.17;28.88;;;;;;;9.87;100.00;99833.06;5002449;28;20377;-46
2023/10/31 04:24:04;;;;;;;30.55;27.25;;;;;;;9.87;100.00;99827.78;5000627;28;20025;-46
2023/10/31 04:26:29;;;;;;;30.92;26.55;;;;;;;9.86;100.00;99831.41;4997384;28;20056;-45
2023/10/31 04:28:54;;;;;;;28.48;25.08;;;;;;;9.89;100.00;99839.09;4998964;28;20030;-45
2023/10/31 04:31:20;;;;;;;28.70;25.70;;;;;;;9.90;100.00;99842.59;4996181;28;20033;-45
2023/10/31 04:33:45;;;;;;;29.33;25.52;;;;;;;9.94;100.00;99846.63;4998245;28;20029;-45
2023/10/31 04:36:10;;;;;;;29.10;25.67;;;;;;;9.94;100.00;99852.78;4999187;28;20061;-46
2023/10/31 04:38:38;;;;;;;27.23;23.92;;;;;;;9.93;100.00;99852.94;4997170;28;20077;-45
2023/10/31 04:41:03;;;;;;;27.98;24.98;;;;;;;9.95;100.00;99857.09;4998099;28;20051;-46
2023/10/31 04:43:28;;;;;;;27.33;23.88;;;;;;;9.96;100.00;99858.78;4998252;28;20027;-46
2023/10/31 04:45:54;;;;;;;26.63;23.83;;;;;;;9.97;100.00;99865.75;4998878;28;20477;-46
2023/10/31 04:48:19;;;;;;;27.00;23.33;;;;;;;9.98;100.00;99867.44;4998677;28;20058;-46
2023/10/31 04:50:44;;;;;;;24.20;21.73;;;;;;;9.98;100.00;99870.09;5002766;28;20499;-46
2023/10/31 04:53:10;;;;;;;22.27;19.83;;;;;;;9.98;100.00;99870.09;4996232;28;20038;-47
2023/10/31 04:55:35;;;;;;;22.35;19.73;;;;;;;9.99;100.00;99870.91;5000222;28;20030;-46
2023/10/31 04:58:00;;;;;;;21.58;18.80;;;;;;;9.97;100.00;99883.50;4997376;28;20022;-46
2023/10/31 05:00:25;;;;;;;21.25;18.92;;;;;;;9.98;100.00;99885.19;5003094;28;20091;-46
2023/10/31 05:02:51;;;;;;;22.63;20.13;;;;;;;9.99;100.00;99882.38;4997015;28;20044;-46
2023/10/31 05:05:16;;;;;;;26.67;20.77;;;;;;;10.02;100.00;99883.09;4999088;28;20034;-46
2023/10/31 05:07:41;;;;;;;24.90;22.25;;;;;;;10.03;100.00;99900.69;4999274;28;20060;-46
2023/10/31 05:10:07;;;;;;;25.48;22.25;;;;;;;10.06;100.00;99893.28;4998647;28;20023;-46
2023/10/31 05:12:32;;;;;;;27.52;23.55;;;;;;;10.03;100.00;99880.28;4998630;28;20476;-48
2023/10/31 05:14:57;;;;;;;26.67;23.98;;;;;;;10.03;100.00;99877.63;4999065;28;20538;-46
2023/10/31 05:17:23;;;;;;;25.30;22.60;;;;;;;10.04;100.00;99881.94;4999234;28;20028;-46
2023/10/31 05:19:49;;;;;;;25.95;22.88;;;;;;;10.05;100.00;99886.28;5001384;28;20030;-46
2023/10/31 05:22:14;;;;;;;24.13;21.50;;;;;;;10.03;100.00;99879.47;4998519;28;20383;-46
2023/10/31 05:24:39;;;;;;;24.90;22.40;;;;;;;10.02;100.00;99877.78;5016919;28;20034;-46
2023/10/31 05:27:07;;;;;;;25.75;22.10;;;;;;;10.00;100.00;99876.09;5015772;28;20031;-46
2023/10/31 05:29:32;;;;;;;23.85;21.35;;;;;;;10.00;100.00;99870.78;4999916;28;20050;-45
2023/10/31 05:31:57;;;;;;;22.85;20.48;;;;;;;9.99;100.00;99871.78;5001650;28;20061;-46
2023/10/31 05:34:23;;;;;;;23.83;21.40;;;;;;;9.98;100.00;99872.75;5001733;28;20034;-46
2023/10/31 05:36:48;;;;;;;23.38;21.08;;;;;;;9.98;100.00;99869.25;4996287;28;20035;-46
2023/10/31 05:39:15;;;;;;;22.25;20.05;;;;;;;9.96;100.00;99887.97;4998274;28;20403;-46
2023/10/31 05:41:40;;;;;;;22.90;20.48;;;;;;;9.96;100.00;99879.19;4994487;28;20029;-46
2023/10/31 05:44:05;;;;;;;22.40;20.30;;;;;;;9.96;100.00;99900.41;4998870;28;20104;-46
2023/10/31 05:46:31;;;;;;;23.00;20.70;;;;;;;9.95;100.00;99904.00;4998448;28;20042;-47
2023/10/31 05:48:56;;;;;;;23.02;20.65;;;;;;;9.92;100.00;99905.13;4996804;28;20419;-47
2023/10/31 05:51:21;;;;;;;22.80;20.38;;;;;;;9.91;100.00;99910.56;4999580;28;20484;-47
2023/10/31 05:53:48;;;;;;;21.92;19.70;;;;;;;9.90;100.00;99917.69;5000221;28;20014;-46
2023/10/31 05:56:14;;;;;;;21.77;19.20;;;;;;;9.88;100.00;99918.81;5001139;28;20023;-47
2023/10/31 05:58:40;;;;;;;21.48;19.23;;;;;;;9.85;100.00;99929.69;5001107;28;20105;-47
2023/10/31 06:01:07;;;;;;;21.17;19.02;;;;;;;9.81;100.00;99924.66;4997359;28;20441;-46
2023/10/31 06:03:32;;;;;;;20.13;17.92;;;;;;;9.80;100.00;99932.72;4996427;28;20080;-46
2023/10/31 06:05:58;;;;;;;19.10;17.10;;;;;;;9.75;100.00;99933.13;4998858;28;20029;-46
2023/10/31 06:08:24;;;;;;;18.98;17.08;;;;;;;9.71;100.00;99942.34;5000874;28;20476;-47
2023/10/31 06:10:52;;;;;;;19.70;17.38;;;;;;;9.70;100.00;99937.16;5001874;28;20026;-46
2023/10/31 06:13:17;;;;;;;18.93;17.07;;;;;;;9.67;100.00;99945.38;4997834;28;20106;-46
2023/10/31 06:15:43;;;;;;;19.95;17.98;;;;;;;9.64;100.00;99938.53;5005229;28;20066;-47
2023/10/31 06:18:08;;;;;;;20.38;18.25;;;;;;;9.65;100.00;99947.34;4995273;28;20018;-47
2023/10/31 06:20:34;;;;;;;19.95;17.92;;;;;;;9.60;100.00;99948.56;5001258;28;20033;-48
2023/10/31 06:23:03;;;;;;;20.60;18.52;;;;;;;9.54;100.00;99957.06;5011040;28;20022;-48
2023/10/31 06:25:28;;;;;;;20.10;18.20;;;;;;;9.52;100.00;99958.16;4995667;28;20142;-48
2023/10/31 06:27:53;;;;;;;21.85;19.60;;;;;;;9.48;100.00;99962.91;5001879;28;20073;-47
2023/10/31 06:30:19;;;;;;;22.65;20.17;;;;;;;9.45;100.00;99971.94;4995826;28;20370;-48
2023/10/31 06:32:44;;;;;;;23.70;21.27;;;;;;;9.42;100.00;99974.84;4997089;28;20021;-48
2023/10/31 06:35:10;;;;;;;23.67;21.27;;;;;;;9.39;100.00;99972.47;4998900;28;20045;-48
2023/10/31 06:37:36;;;;;;;24.00;21.67;;;;;;;9.35;100.00;99975.53;4996747;28;20101;-48
2023/10/31 06:40:01;;;;;;;24.73;22.25;;;;;;;9.32;100.00;99976.59;4995699;28;20045;-47
2023/10/31 06:42:26;;;;;;;25.98;23.20;;;;;;;9.31;100.00;99982.03;5000735;28;20036;-47
2023/10/31 06:44:52;;;;;;;25.85;22.83;;;;;;;9.30;100.00;99985.69;4998049;28;20074;-48
2023/10/31 06:47:17;;;;;;;25.73;23.02;;;;;;;9.28;100.00;99982.31;4998084;28;20072;-48
2023/10/31 06:49:42;;;;;;;24.77;22.23;;;;;;;9.29;100.00;99976.03;5001041;28;20069;-47
2023/10/31 06:52:07;;;;;;;26.58;23.77;;;;;;;9.29;100.00;99983.97;5001048;28;20384;-47
2023/10/31 06:54:34;;;;;;;25.20;22.70;;;;;;;9.28;100.00;99995.56;4999754;28;20029;-48
2023/10/31 06:57:01;;;;;;;23.90;21.50;;;;;;;9.26;100.00;99993.06;4993277;28;20022;-48
2023/10/31 06:59:26;;;;;;;23.92;21.52;;;;;;;9.24;100.00;99998.47;4994844;28;20063;-49
2023/10/31 07:01:52;;;;;;;23.08;20.65;;;;;;;9.24;100.00;100000.25;4997612;28;20479;-48
2023/10/31 07:04:18;;;;;;;24.58;21.48;;;;;;;9.22;100.00;100005.69;5001310;28;20100;-48
2023/10/31 07:06:43;;;;;;;22.55;20.20;;;;;;;9.21;100.00;100000.56;4989042;28;20029;-48
2023/10/31 07:09:09;;;;;;;21.83;19.73;;;;;;;9.22;100.00;100007.50;5000283;28;20023;-48
2023/10/31 07:11:35;;;;;;;21.83;19.63;;;;;;;9.24;100.00;100010.88;4997547;28;20029;-47
2023/10/31 07:14:03;;;;;;;20.25;18.25;;;;;;;9.23;100.00;100006.56;4996789;28;20504;-52
2023/10/31 07:16:29;;;;;;;21.60;18.63;;;;;;;9.24;100.00;100011.72;4997510;28;20479;-49
2023/10/31 07:18:54;;;;;;;20.48;18.52;;;;;;;9.24;100.00;100011.72;4996628;28;20026;-49
2023/10/31 07:21:20;;;;;;;21.08;18.98;;;;;;;9.25;100.00;100010.75;4999921;28;20476;-48
2023/10/31 07:23:45;;;;;;;20.33;18.00;;;;;;;9.26;100.00;100015.09;4994272;28;20098;-49
2023/10/31 07:26:11;;;;;;;18.95;17.15;;;;;;;9.26;100.00;100019.53;5007189;28;20026;-48
2023/10/31 07:28:36;;;;;;;20.02;17.98;;;;;;;9.28;100.00;100028.19;4998068;28;20438;-47
2023/10/31 07:31:02;;;;;;;20.25;17.70;;;;;;;9.26;100.00;100016.91;4997555;28;20151;-47
2023/10/31 07:33:27;;;;;;;19.25;16.75;;;;;;;9.26;100.00;100024.84;5001921;28;20034;-47
2023/10/31 07:35:52;;;;;;;19.60;17.73;;;;;;;9.26;100.00;100030.16;4998880;28;20105;-47
2023/10/31 07:38:18;;;;;;;20.27;17.98;;;;;;;9.28;100.00;100027.38;5001667;28;20110;-48
2023/10/31 07:40:43;;;;;;;19.98;17.88;;;;;;;9.28;100.00;100022.06;4998498;28;20449;-47
2023/10/31 07:43:08;;;;;;;18.80;16.98;;;;;;;9.27;100.00;100026.50;5004295;28;20025;-47
2023/10/31 07:45:33;;;;;;;20.58;16.92;;;;;;;9.26;100.00;100032.78;5004419;28;20021;-47
2023/10/31 07:47:59;;;;;;;21.27;17.20;;;;;;;9.26;100.00;100032.78;4999002;28;20050;-48
2023/10/31 07:50:24;;;;;;;19.85;17.75;;;;;;;9.26;100.00;100030.16;4998415;28;20389;-49
2023/10/31 07:52:49;;;;;;;19.63;17.52;;;;;;;9.27;100.00;100031.81;4993716;28;20022;-48
2023/10/31 07:55:15;;;;;;;20.13;18.23;;;;;;;9.27;100.00;100031.81;5001686;28;20022;-47
2023/10/31 07:57:40;;;;;;;22.30;19.00;;;;;;;9.27;100.00;100029.16;5000009;28;20052;-47
2023/10/31 08:00:10;;;;;;;23.20;20.00;;;;;;;9.26;100.00;100030.97;4995562;28;20590;-47
2023/10/31 08:02:36;;;;;;;23.40;20.92;;;;;;;9.28;100.00;100035.31;4999865;28;20026;-47
2023/10/31 08:05:01;;;;;;;24.33;21.73;;;;;;;9.31;100.00;100042.97;4999498;28;20075;-48
2023/10/31 08:07:29;;;;;;;25.42;22.50;;;;;;;9.33;100.00;100041.91;5011207;28;20036;-48
2023/10/31 08:09:56;;;;;;;26.30;23.60;;;;;;;9.37;100.00;100045.13;4995146;28;20034;-48
2023/10/31 08:12:21;;;;;;;28.42;24.17;;;;;;;9.38;100.00;100050.31;4998967;28;20496;-48
2023/10/31 08:14:46;;;;;;;30.08;26.77;;;;;;;9.42;100.00;100050.88;5004125;28;20037;-47
2023/10/31 08:17:11;;;;;;;29.25;26.20;;;;;;;9.43;100.00;100047.28;5000564;28;20074;-47
2023/10/31 08:19:37;;;;;;;29.77;26.58;;;;;;;9.47;100.00;100056.63;4997758;28;20154;-49
2023/10/31 08:22:02;;;;;;;27.30;24.45;;;;;;;9.50;100.00;100055.53;5004660;28;20067;-48
2023/10/31 08:24:27;;;;;;;27.75;24.85;;;;;;;9.50;100.00;100059.03;5000721;28;20042;-48
2023/10/31 08:26:53;;;;;;;31.67;25.40;;;;;;;9.52;100.00;100053.59;4997039;28;20448;-47
2023/10/31 08:29:18;;;;;;;26.45;23.60;;;;;;;9.54;100.00;100064.91;4999819;28;20045;-47
2023/10/31 08:31:43;;;;;;;32.42;24.38;;;;;;;9.54;100.00;100063.13;5001030;28;20030;-47
2023/10/31 08:34:10;;;;;;;27.95;23.80;;;;;;;9.56;100.00;100057.66;4996315;28;20034;-47
2023/10/31 08:36:35;;;;;;;30.70;24.20;;;;;;;9.59;100.00;100062.69;4992862;28;20030;-47
2023/10/31 08:39:00;;;;;;;26.60;23.23;;;;;;;9.60;100.00;100059.09;4995724;28;20167;-47
2023/10/31 08:41:26;;;;;;;31.05;24.33;;;;;;;9.61;100.00;100056.31;5001622;28;20053;-47
2023/10/31 08:43:51;;;;;;;25.33;22.45;;;;;;;9.69;100.00;100068.06;5000295;28;20041;-47
2023/10/31 08:46:17;;;;;;;25.98;22.90;;;;;;;9.70;100.00;100067.94;5002679;28;20042;-47
2023/10/31 08:48:42;;;;;;;27.73;22.25;;;;;;;9.72;100.00;100073.94;5001699;28;20491;-49
2023/10/31 08:51:08;;;;;;;27.63;22.25;;;;;;;9.75;100.00;100081.63;5000611;28;20034;-47
2023/10/31 08:53:33;;;;;;;26.73;21.92;;;;;;;9.80;100.00;100091.84;4997933;28;20034;-47
2023/10/31 08:55:58;;;;;;;27.58;21.73;;;;;;;9.85;100.00;100094.94;5011532;28;20460;-48
2023/10/31 08:58:24;;;;;;;27.15;22.13;;;;;;;9.90;100.00;100110.47;4993721;28;20160;-47
2023/10/31 09:00:49;;;;;;;26.35;21.50;;;;;;;9.90;100.00;100105.19;5001120;28;20027;-47
2023/10/31 09:03:15;;;;;;;27.95;21.30;;;;;;;9.93;100.00;100112.88;4999292;28;20034;-48
2023/10/31 09:05:40;;;;;;;28.70;23.13;;;;;;;9.98;100.00;100116.81;5008431;28;20037;-48
2023/10/31 09:08:06;;;;;;;25.65;22.05;;;;;;;10.05;100.00;100127.72;4999724;28;20536;-47
2023/10/31 09:10:32;;;;;;;27.77;21.98;;;;;;;10.07;100.00;100123.13;4995067;28;20039;-47
2023/10/31 09:12:57;;;;;;;26.98;21.60;;;;;;;10.10;100.00;100128.16;5001299;28;20034;-50
2023/10/31 09:15:23;;;;;;;25.80;20.42;;;;;;;10.13;100.00;100129.72;4998477;28;20080;-48
2023/10/31 09:17:48;;;;;;;24.90;21.63;;;;;;;10.16;100.00;100134.78;4999624;28;20182;-48
2023/10/31 09:20:13;;;;;;;25.48;21.55;;;;;;;10.17;100.00;100131.13;4996641;28;20033;-47
2023/10/31 09:22:39;;;;;;;27.30;21.48;;;;;;;10.20;100.00;100138.84;5000712;28;20461;-48
2023/10/31 09:25:05;;;;;;;29.75;21.92;;;;;;;10.20;100.00;100141.50;4998198;28;20027;-47
2023/10/31 09:27:30;;;;;;;27.92;20.83;;;;;;;10.25;100.00;100146.41;5000431;28;20101;-47
2023/10/31 09:29:55;;;;;;;24.30;21.27;;;;;;;10.31;100.00;100151.19;4997276;28;20037;-48
2023/10/31 09:32:20;;;;;;;23.33;20.50;;;;;;;10.35;100.00;100147.31;4999697;28;20026;-48
2023/10/31 09:34:46;;;;;;;26.90;21.25;;;;;;;10.38;100.00;100162.97;4999384;28;20483;-48
2023/10/31 09:37:11;;;;;;;24.55;19.67;;;;;;;10.42;100.00;100172.34;4998202;28;20029;-48
2023/10/31 09:39:36;;;;;;;23.77;20.90;;;;;;;10.48;100.00;100173.66;4998936;28;20026;-47
2023/10/31 09:42:02;;;;;;;24.55;21.73;;;;;;;10.51;100.00;100184.00;4999888;28;20038;-47
2023/10/31 09:44:27;;;;;;;25.00;20.33;;;;;;;10.47;100.00;100183.41;4997959;28;20022;-47
2023/10/31 09:46:53;;;;;;;25.88;19.88;;;;;;;10.47;100.00;100183.41;4997341;28;20097;-47
2023/10/31 09:49:18;;;;;;;22.23;19.77;;;;;;;10.49;100.00;100180.63;5000696;28;20472;-47
2023/10/31 09:51:46;;;;;;;22.70;19.48;;;;;;;10.52;100.00;100175.91;4996768;28;20172;-47
2023/10/31 09:54:15;;;;;;;22.60;18.52;;;;;;;10.53;100.00;100184.69;4999670;28;20037;-48
2023/10/31 09:56:41;;;;;;;23.50;19.63;;;;;;;10.58;100.00;100184.31;5001956;28;20124;-47
2023/10/31 09:59:07;;;;;;;22.45;18.70;;;;;;;10.60;100.00;100182.34;4999278;28;20542;-48
2023/10/31 10:01:32;;;;;;;21.95;19.65;;;;;;;10.68;100.00;100185.19;5002850;28;20022;-47
2023/10/31 10:03:57;;;;;;;21.38;18.70;;;;;;;10.79;100.00;100185.09;4996492;28;20041;-47
2023/10/31 10:06:23;;;;;;;19.63;17.52;;;;;;;10.82;100.00;100190.09;5002930;28;20067;-48
2023/10/31 10:08:49;;;;;;;22.13;18.58;;;;;;;10.91;100.00;100197.28;4996338;28;20061;-47
2023/10/31 10:11:15;;;;;;;20.08;17.83;;;;;;;10.93;100.00;100203.28;4996706;28;20101;-47
2023/10/31 10:13:40;;;;;;;20.10;18.00;;;;;;;10.93;100.00;100197.97;5006605;28;20030;-47
2023/10/31 10:16:06;;;;;;;19.00;16.80;;;;;;;10.91;100.00;100207.06;5000446;28;20026;-47
2023/10/31 10:18:34;;;;;;;22.48;17.80;;;;;;;10.90;100.00;100210.69;4995221;28;20477;-47
2023/10/31 10:21:04;;;;;;;21.85;16.85;;;;;;;10.88;100.00;100218.78;5001385;28;20022;-47
2023/10/31 10:23:29;;;;;;;17.73;15.27;;;;;;;10.87;100.00;100216.28;4996875;28;20113;-48
2023/10/31 10:25:56;;;;;;;18.05;15.65;;;;;;;10.83;100.00;100222.84;4998651;28;20523;-48
2023/10/31 10:28:22;;;;;;;18.48;15.70;;;;;;;10.83;100.00;100217.53;4999026;28;20034;-47
2023/10/31 10:30:48;;;;;;;17.55;14.82;;;;;;;10.89;100.00;100223.16;4999809;28;20025;-46
2023/10/31 10:33:15;;;;;;;16.13;14.27;;;;;;;10.92;100.00;100225.53;5003840;28;20034;-47
2023/10/31 10:35:41;;;;;;;18.45;14.00;;;;;;;10.93;100.00;100231.69;4996348;28;20113;-47
2023/10/31 10:38:12;;;;;;;16.02;13.50;;;;;;;10.98;100.00;100232.13;5000226;28;20034;-48
2023/10/31 10:40:43;;;;;;;17.83;14.07;;;;;;;11.03;100.00;100235.19;5000016;28;20481;-47
2023/10/31 10:43:28;;;;;;;19.15;13.98;;;;;;;11.09;100.00;100241.78;4995726;28;20023;-47
2023/10/31 10:45:56;;;;;;;15.65;13.90;;;;;;;11.06;100.00;100242.06;4997768;28;20033;-48
2023/10/31 10:48:22;;;;;;;17.05;14.48;;;;;;;11.11;100.00;100247.81;5003864;28;20029;-48
2023/10/31 10:50:57;;;;;;;16.55;13.23;;;;;;;11.14;100.00;100247.56;5019494;28;20022;-47
2023/10/31 10:53:27;;;;;;;16.70;14.32;;;;;;;11.15;100.00;100253.69;4998170;28;20057;-47
2023/10/31 10:56:00;;;;;;;18.38;13.57;;;;;;;11.14;100.00;100252.88;4994689;28;20023;-48
2023/10/31 10:58:41;;;;;;;17.02;14.07;;;;;;;11.18;100.00;100259.59;4996980;28;20083;-47
2023/10/31 11:01:08;;;;;;;22.05;14.82;;;;;;;11.17;100.00;100257.06;4997282;28;20034;-47
2023/10/31 11:03:34;;;;;;;18.10;14.70;;;;;;;11.19;100.00;100260.41;4999365;28;20025;-47
2023/10/31 11:05:59;;;;;;;19.27;14.85;;;;;;;11.22;100.00;100249.50;4997628;28;20045;-48
2023/10/31 11:08:25;;;;;;;16.63;14.18;;;;;;;11.23;100.00;100246.72;4996009;28;20030;-48